createdAt,value
2015-09-07T00:00:14.082Z,96441
2015-09-07T00:00:32.457Z,96438
2015-09-07T00:00:50.849Z,96441
2015-09-07T00:01:09.224Z,96444
2015-09-07T00:01:27.599Z,96444
2015-09-07T00:01:45.974Z,96439
2015-09-07T00:02:04.367Z,96436
2015-09-07T00:02:22.773Z,96439
2015-09-07T00:02:41.132Z,96436
2015-09-07T00:02:59.509Z,96439
2015-09-07T00:03:17.916Z,96447
2015-09-07T00:03:36.291Z,96436
2015-09-07T00:03:54.668Z,96431
2015-09-07T00:04:13.043Z,96445
2015-09-07T00:04:31.402Z,96439
2015-09-07T00:04:49.777Z,96439
2015-09-07T00:05:08.138Z,96437
2015-09-07T00:05:26.529Z,96437
2015-09-07T00:05:44.888Z,96436
2015-09-07T00:06:03.281Z,96442
2015-09-07T00:06:21.640Z,96439
2015-09-07T00:06:40.015Z,96442
2015-09-07T00:06:58.408Z,96435
2015-09-07T00:07:16.767Z,96448
2015-09-07T00:07:35.158Z,96438
2015-09-07T00:07:53.533Z,96441
2015-09-07T00:08:11.910Z,96441
2015-09-07T00:08:30.269Z,96435
2015-09-07T00:08:48.488Z,96433
2015-09-07T00:09:06.865Z,96444
2015-09-07T00:09:25.240Z,96447
2015-09-07T00:09:43.615Z,96444
2015-09-07T00:10:01.992Z,96438
2015-09-07T00:10:20.383Z,96446
2015-09-07T00:10:38.773Z,96444
2015-09-07T00:10:57.148Z,96444
2015-09-07T00:11:15.541Z,96439
2015-09-07T00:11:33.916Z,96433
2015-09-07T00:11:52.275Z,96444
2015-09-07T00:12:10.652Z,96441
2015-09-07T00:12:29.043Z,96447
2015-09-07T00:12:47.418Z,96452
2015-09-07T00:13:05.810Z,96450
2015-09-07T00:13:24.044Z,96442
2015-09-07T00:13:42.435Z,96439
2015-09-07T00:14:00.794Z,96439
2015-09-07T00:14:19.171Z,96437
2015-09-07T00:14:37.546Z,96448
2015-09-07T00:14:55.905Z,96431
2015-09-07T00:15:14.283Z,96450
2015-09-07T00:15:32.658Z,96441
2015-09-07T00:15:51.049Z,96447
2015-09-07T00:16:09.426Z,96444
2015-09-07T00:16:27.801Z,96447
2015-09-07T00:16:46.176Z,96436
2015-09-07T00:17:04.551Z,96439
2015-09-07T00:17:22.927Z,96436
2015-09-07T00:17:41.302Z,96445
2015-09-07T00:17:59.661Z,96439
2015-09-07T00:18:18.039Z,96447
2015-09-07T00:18:36.430Z,96431
2015-09-07T00:18:54.774Z,96426
2015-09-07T00:19:13.150Z,96434
2015-09-07T00:19:31.509Z,96437
2015-09-07T00:19:49.900Z,96434
2015-09-07T00:20:08.275Z,96440
2015-09-07T00:20:26.667Z,96440
2015-09-07T00:20:45.058Z,96442
2015-09-07T00:21:03.433Z,96429
2015-09-07T00:21:21.810Z,96428
2015-09-07T00:21:40.185Z,96426
2015-09-07T00:21:58.560Z,96440
2015-09-07T00:22:16.921Z,96434
2015-09-07T00:22:35.296Z,96432
2015-09-07T00:22:53.671Z,96426
2015-09-07T00:23:12.062Z,96431
2015-09-07T00:23:30.455Z,96426
2015-09-07T00:23:48.814Z,96434
2015-09-07T00:24:07.205Z,96420
2015-09-07T00:24:25.582Z,96428
2015-09-07T00:24:43.957Z,96423
2015-09-07T00:25:02.347Z,96417
2015-09-07T00:25:20.724Z,96423
2015-09-07T00:25:39.084Z,96428
2015-09-07T00:25:57.459Z,96431
2015-09-07T00:26:15.818Z,96434
2015-09-07T00:26:34.195Z,96429
2015-09-07T00:26:52.758Z,96429
2015-09-07T00:27:11.133Z,96432
2015-09-07T00:27:29.541Z,96423
2015-09-07T00:27:47.900Z,96426
2015-09-07T00:28:06.291Z,96434
2015-09-07T00:28:24.652Z,96434
2015-09-07T00:28:43.043Z,96432
2015-09-07T00:29:01.402Z,96426
2015-09-07T00:29:19.794Z,96434
2015-09-07T00:29:38.184Z,96429
2015-09-07T00:29:56.559Z,96420
2015-09-07T00:30:14.966Z,96426
2015-09-07T00:30:33.375Z,96429
2015-09-07T00:30:51.734Z,96429
2015-09-07T00:31:10.094Z,96423
2015-09-07T00:31:28.471Z,96432
2015-09-07T00:31:46.830Z,96423
2015-09-07T00:32:05.252Z,96426
2015-09-07T00:32:23.628Z,96429
2015-09-07T00:32:42.003Z,96415
2015-09-07T00:33:00.394Z,96421
2015-09-07T00:33:18.769Z,96435
2015-09-07T00:33:37.162Z,96429
2015-09-07T00:33:55.537Z,96426
2015-09-07T00:34:13.912Z,96432
2015-09-07T00:34:32.289Z,96427
2015-09-07T00:34:50.664Z,96421
2015-09-07T00:35:09.039Z,96424
2015-09-07T00:35:27.414Z,96432
2015-09-07T00:35:45.901Z,96424
2015-09-07T00:36:04.401Z,96427
2015-09-07T00:36:22.776Z,96427
2015-09-07T00:36:41.152Z,96425
2015-09-07T00:36:59.542Z,96419
2015-09-07T00:37:17.917Z,96422
2015-09-07T00:37:36.294Z,96422
2015-09-07T00:37:54.685Z,96419
2015-09-07T00:38:13.075Z,96416
2015-09-07T00:38:31.482Z,96416
2015-09-07T00:38:49.860Z,96414
2015-09-07T00:39:08.219Z,96408
2015-09-07T00:39:26.610Z,96408
2015-09-07T00:39:44.970Z,96408
2015-09-07T00:40:03.345Z,96417
2015-09-07T00:40:21.736Z,96411
2015-09-07T00:40:40.113Z,96419
2015-09-07T00:40:58.488Z,96414
2015-09-07T00:41:16.863Z,96414
2015-09-07T00:41:35.269Z,96420
2015-09-07T00:41:53.631Z,96422
2015-09-07T00:42:12.006Z,96417
2015-09-07T00:42:30.381Z,96417
2015-09-07T00:42:48.742Z,96414
2015-09-07T00:43:07.117Z,96411
2015-09-07T00:43:25.492Z,96414
2015-09-07T00:43:43.884Z,96411
2015-09-07T00:44:02.244Z,96403
2015-09-07T00:44:20.650Z,96411
2015-09-07T00:44:39.025Z,96408
2015-09-07T00:44:57.386Z,96411
2015-09-07T00:45:15.777Z,96412
2015-09-07T00:45:34.152Z,96414
2015-09-07T00:45:52.513Z,96401
2015-09-07T00:46:10.873Z,96412
2015-09-07T00:46:29.248Z,96415
2015-09-07T00:46:47.656Z,96415
2015-09-07T00:47:06.015Z,96415
2015-09-07T00:47:24.390Z,96415
2015-09-07T00:47:42.765Z,96415
2015-09-07T00:48:01.142Z,96409
2015-09-07T00:48:19.533Z,96415
2015-09-07T00:48:37.924Z,96423
2015-09-07T00:48:56.161Z,96415
2015-09-07T00:49:14.552Z,96420
2015-09-07T00:49:32.911Z,96412
2015-09-07T00:49:51.271Z,96409
2015-09-07T00:50:09.490Z,96415
2015-09-07T00:50:27.881Z,96417
2015-09-07T00:50:46.271Z,96420
2015-09-07T00:51:04.726Z,96409
2015-09-07T00:51:23.101Z,96414
2015-09-07T00:51:41.461Z,96420
2015-09-07T00:51:59.853Z,96412
2015-09-07T00:52:18.244Z,96420
2015-09-07T00:52:36.603Z,96409
2015-09-07T00:52:54.996Z,96414
2015-09-07T00:53:13.387Z,96420
2015-09-07T00:53:31.777Z,96415
2015-09-07T00:53:50.168Z,96417
2015-09-07T00:54:08.545Z,96423
2015-09-07T00:54:26.920Z,96417
2015-09-07T00:54:45.326Z,96417
2015-09-07T00:55:03.703Z,96417
2015-09-07T00:55:22.078Z,96414
2015-09-07T00:55:40.453Z,96422
2015-09-07T00:55:58.830Z,96422
2015-09-07T00:56:17.190Z,96412
2015-09-07T00:56:35.565Z,96409
2015-09-07T00:56:54.002Z,96426
2015-09-07T00:57:12.395Z,96420
2015-09-07T00:57:30.770Z,96417
2015-09-07T00:57:49.145Z,96412
2015-09-07T00:58:07.522Z,96409
2015-09-07T00:58:25.944Z,96409
2015-09-07T00:58:44.319Z,96420
2015-09-07T00:59:02.696Z,96417
2015-09-07T00:59:21.071Z,96408
2015-09-07T00:59:39.446Z,96414
2015-09-07T00:59:57.836Z,96417
2015-09-07T01:00:16.198Z,96414
2015-09-07T01:00:34.604Z,96408
2015-09-07T01:00:52.979Z,96411
2015-09-07T01:01:11.371Z,96408
2015-09-07T01:01:29.778Z,96416
2015-09-07T01:01:48.153Z,96411
2015-09-07T01:02:06.530Z,96414
2015-09-07T01:02:24.889Z,96408
2015-09-07T01:02:43.280Z,96416
2015-09-07T01:03:01.655Z,96417
2015-09-07T01:03:20.031Z,96414
2015-09-07T01:03:38.453Z,96414
2015-09-07T01:03:56.828Z,96411
2015-09-07T01:04:15.189Z,96414
2015-09-07T01:04:33.564Z,96406
2015-09-07T01:04:51.283Z,96411
2015-09-07T01:05:09.661Z,96412
2015-09-07T01:05:28.036Z,96417
2015-09-07T01:05:46.442Z,96419
2015-09-07T01:06:04.817Z,96408
2015-09-07T01:06:23.209Z,96411
2015-09-07T01:06:41.584Z,96400
2015-09-07T01:06:59.959Z,96409
2015-09-07T01:07:18.336Z,96409
2015-09-07T01:07:36.742Z,96412
2015-09-07T01:07:55.132Z,96409
2015-09-07T01:08:13.495Z,96409
2015-09-07T01:08:31.885Z,96406
2015-09-07T01:08:50.260Z,96403
2015-09-07T01:09:08.635Z,96408
2015-09-07T01:09:26.997Z,96398
2015-09-07T01:09:45.356Z,96415
2015-09-07T01:10:03.731Z,96411
2015-09-07T01:10:22.124Z,96408
2015-09-07T01:10:40.499Z,96414
2015-09-07T01:10:58.874Z,96414
2015-09-07T01:11:17.251Z,96411
2015-09-07T01:11:35.626Z,96400
2015-09-07T01:11:54.938Z,96414
2015-09-07T01:12:13.314Z,96406
2015-09-07T01:12:31.674Z,96400
2015-09-07T01:12:50.049Z,96403
2015-09-07T01:13:08.439Z,96398
2015-09-07T01:13:26.833Z,96395
2015-09-07T01:13:45.224Z,96406
2015-09-07T01:14:03.599Z,96403
2015-09-07T01:14:21.975Z,96409
2015-09-07T01:14:40.350Z,96409
2015-09-07T01:14:58.709Z,96400
2015-09-07T01:15:17.102Z,96406
2015-09-07T01:15:35.477Z,96406
2015-09-07T01:15:53.867Z,96403
2015-09-07T01:16:12.242Z,96409
2015-09-07T01:16:30.619Z,96406
2015-09-07T01:16:48.994Z,96403
2015-09-07T01:17:07.354Z,96403
2015-09-07T01:17:25.731Z,96392
2015-09-07T01:17:44.106Z,96409
2015-09-07T01:18:02.465Z,96409
2015-09-07T01:18:20.889Z,96406
2015-09-07T01:18:39.233Z,96398
2015-09-07T01:18:57.608Z,96406
2015-09-07T01:19:15.967Z,96400
2015-09-07T01:19:34.328Z,96403
2015-09-07T01:19:52.703Z,96403
2015-09-07T01:20:11.063Z,96400
2015-09-07T01:20:29.518Z,96401
2015-09-07T01:20:47.893Z,96406
2015-09-07T01:21:06.268Z,96409
2015-09-07T01:21:24.645Z,96410
2015-09-07T01:21:43.020Z,96406
2015-09-07T01:22:01.410Z,96409
2015-09-07T01:22:19.754Z,96412
2015-09-07T01:22:38.131Z,96404
2015-09-07T01:22:56.491Z,96404
2015-09-07T01:23:14.850Z,96404
2015-09-07T01:23:33.305Z,96399
2015-09-07T01:23:51.789Z,96399
2015-09-07T01:24:10.274Z,96401
2015-09-07T01:24:28.650Z,96401
2015-09-07T01:24:47.087Z,96410
2015-09-07T01:25:05.509Z,96396
2015-09-07T01:25:23.931Z,96407
2015-09-07T01:25:42.606Z,96394
2015-09-07T01:26:01.012Z,96415
2015-09-07T01:26:19.372Z,96402
2015-09-07T01:26:37.795Z,96402
2015-09-07T01:26:56.499Z,96399
2015-09-07T01:27:15.030Z,96397
2015-09-07T01:27:33.282Z,96408
2015-09-07T01:27:51.626Z,96396
2015-09-07T01:28:10.001Z,96400
2015-09-07T01:28:27.782Z,96397
2015-09-07T01:28:46.206Z,96397
2015-09-07T01:29:04.612Z,96399
2015-09-07T01:29:23.206Z,96391
2015-09-07T01:29:41.957Z,96403
2015-09-07T01:30:00.347Z,96395
2015-09-07T01:30:18.941Z,96400
2015-09-07T01:30:37.319Z,96400
2015-09-07T01:30:55.772Z,96391
2015-09-07T01:31:14.257Z,96399
2015-09-07T01:31:32.694Z,96399
2015-09-07T01:31:51.179Z,96402
2015-09-07T01:32:09.648Z,96397
2015-09-07T01:32:28.101Z,96402
2015-09-07T01:32:46.463Z,96400
2015-09-07T01:33:04.838Z,96402
2015-09-07T01:33:23.275Z,96402
2015-09-07T01:33:41.699Z,96397
2015-09-07T01:34:00.199Z,96400
2015-09-07T01:34:18.637Z,96395
2015-09-07T01:34:36.996Z,96397
2015-09-07T01:34:55.389Z,96395
2015-09-07T01:35:13.748Z,96401
2015-09-07T01:35:32.107Z,96404
2015-09-07T01:35:50.484Z,96396
2015-09-07T01:36:08.984Z,96396
2015-09-07T01:36:27.359Z,96407
2015-09-07T01:36:45.939Z,96396
2015-09-07T01:37:04.471Z,96393
2015-09-07T01:37:23.002Z,96391
2015-09-07T01:37:41.518Z,96389
2015-09-07T01:37:59.770Z,96402
2015-09-07T01:38:18.145Z,96393
2015-09-07T01:38:36.504Z,96396
2015-09-07T01:38:55.006Z,96396
2015-09-07T01:39:13.522Z,96396
2015-09-07T01:39:31.881Z,96393
2015-09-07T01:39:50.383Z,96396
2015-09-07T01:40:08.774Z,96393
2015-09-07T01:40:27.133Z,96386
2015-09-07T01:40:45.510Z,96383
2015-09-07T01:41:04.041Z,96396
2015-09-07T01:41:22.526Z,96398
2015-09-07T01:41:40.916Z,96388
2015-09-07T01:41:59.324Z,96390
2015-09-07T01:42:17.918Z,96396
2015-09-07T01:42:36.606Z,96393
2015-09-07T01:42:54.998Z,96393
2015-09-07T01:43:13.358Z,96398
2015-09-07T01:43:31.717Z,96393
2015-09-07T01:43:50.141Z,96390
2015-09-07T01:44:08.547Z,96390
2015-09-07T01:44:27.078Z,96385
2015-09-07T01:44:45.547Z,96388
2015-09-07T01:45:04.096Z,96398
2015-09-07T01:45:22.565Z,96393
2015-09-07T01:45:41.018Z,96383
2015-09-07T01:45:59.411Z,96388
2015-09-07T01:46:17.879Z,96388
2015-09-07T01:46:36.473Z,96383
2015-09-07T01:46:54.896Z,96386
2015-09-07T01:47:13.646Z,96390
2015-09-07T01:47:32.005Z,96393
2015-09-07T01:47:50.380Z,96393
2015-09-07T01:48:08.789Z,96390
2015-09-07T01:48:27.242Z,96393
2015-09-07T01:48:45.648Z,96383
2015-09-07T01:49:04.120Z,96388
2015-09-07T01:49:22.682Z,96383
2015-09-07T01:49:41.073Z,96383
2015-09-07T01:49:59.450Z,96381
2015-09-07T01:50:17.809Z,96389
2015-09-07T01:50:36.247Z,96377
2015-09-07T01:50:54.606Z,96383
2015-09-07T01:51:13.216Z,96393
2015-09-07T01:51:31.623Z,96383
2015-09-07T01:51:50.060Z,96386
2015-09-07T01:52:08.438Z,96390
2015-09-07T01:52:26.860Z,96386
2015-09-07T01:52:45.407Z,96394
2015-09-07T01:53:03.830Z,96381
2015-09-07T01:53:22.549Z,96391
2015-09-07T01:53:41.158Z,96383
2015-09-07T01:53:59.580Z,96378
2015-09-07T01:54:17.942Z,96381
2015-09-07T01:54:36.380Z,96387
2015-09-07T01:54:54.755Z,96378
2015-09-07T01:55:13.318Z,96381
2015-09-07T01:55:31.756Z,96381
2015-09-07T01:55:50.146Z,96387
2015-09-07T01:56:08.852Z,96376
2015-09-07T01:56:27.446Z,96381
2015-09-07T01:56:46.040Z,96387
2015-09-07T01:57:04.821Z,96384
2015-09-07T01:57:23.370Z,96387
2015-09-07T01:57:42.058Z,96384
2015-09-07T01:58:00.542Z,96381
2015-09-07T01:58:19.012Z,96384
2015-09-07T01:58:37.496Z,96389
2015-09-07T01:58:56.277Z,96387
2015-09-07T01:59:14.748Z,96381
2015-09-07T01:59:33.342Z,96376
2015-09-07T01:59:51.717Z,96384
2015-09-07T02:00:10.094Z,96381
2015-09-07T02:00:28.484Z,96389
2015-09-07T02:00:46.891Z,96387
2015-09-07T02:01:05.406Z,96392
2015-09-07T02:01:23.878Z,96389
2015-09-07T02:01:42.269Z,96389
2015-09-07T02:02:00.800Z,96389
2015-09-07T02:02:19.426Z,96394
2015-09-07T02:02:37.895Z,96387
2015-09-07T02:02:56.473Z,96391
2015-09-07T02:03:15.053Z,96389
2015-09-07T02:03:33.678Z,96392
2015-09-07T02:03:52.256Z,96389
2015-09-07T02:04:10.819Z,96387
2015-09-07T02:04:29.353Z,96398
2015-09-07T02:04:47.993Z,96385
2015-09-07T02:05:06.447Z,96377
2015-09-07T02:05:24.807Z,96390
2015-09-07T02:05:43.338Z,96392
2015-09-07T02:06:01.807Z,96385
2015-09-07T02:06:20.278Z,96396
2015-09-07T02:06:38.825Z,96388
2015-09-07T02:06:57.215Z,96386
2015-09-07T02:07:15.793Z,96392
2015-09-07T02:07:34.170Z,96389
2015-09-07T02:07:52.670Z,96392
2015-09-07T02:08:11.108Z,96392
2015-09-07T02:08:29.688Z,96398
2015-09-07T02:08:48.735Z,96385
2015-09-07T02:09:07.204Z,96392
2015-09-07T02:09:25.721Z,96382
2015-09-07T02:09:44.331Z,96389
2015-09-07T02:10:02.846Z,96380
2015-09-07T02:10:21.518Z,96385
2015-09-07T02:10:39.941Z,96383
2015-09-07T02:10:58.738Z,96390
2015-09-07T02:11:17.113Z,96383
2015-09-07T02:11:35.522Z,96377
2015-09-07T02:11:54.194Z,96380
2015-09-07T02:12:12.569Z,96380
2015-09-07T02:12:31.133Z,96377
2015-09-07T02:12:49.649Z,96377
2015-09-07T02:13:08.383Z,96383
2015-09-07T02:13:26.868Z,96374
2015-09-07T02:13:45.385Z,96380
2015-09-07T02:14:03.964Z,96383
2015-09-07T02:14:22.432Z,96377
2015-09-07T02:14:40.919Z,96385
2015-09-07T02:14:59.309Z,96377
2015-09-07T02:15:17.731Z,96372
2015-09-07T02:15:36.342Z,96388
2015-09-07T02:15:54.748Z,96369
2015-09-07T02:16:13.185Z,96377
2015-09-07T02:16:31.560Z,96372
2015-09-07T02:16:49.954Z,96375
2015-09-07T02:17:08.548Z,96372
2015-09-07T02:17:27.110Z,96372
2015-09-07T02:17:45.534Z,96370
2015-09-07T02:18:04.003Z,96378
2015-09-07T02:18:22.440Z,96375
2015-09-07T02:18:41.098Z,96372
2015-09-07T02:18:59.488Z,96375
2015-09-07T02:19:17.863Z,96378
2015-09-07T02:19:36.554Z,96378
2015-09-07T02:19:55.007Z,96364
2015-09-07T02:20:13.397Z,96378
2015-09-07T02:20:32.101Z,96372
2015-09-07T02:20:50.462Z,96369
2015-09-07T02:21:08.837Z,96372
2015-09-07T02:21:27.274Z,96380
2015-09-07T02:21:45.729Z,96367
2015-09-07T02:22:04.166Z,96372
2015-09-07T02:22:22.760Z,96380
2015-09-07T02:22:41.293Z,96375
2015-09-07T02:22:59.715Z,96373
2015-09-07T02:23:18.215Z,96375
2015-09-07T02:23:36.668Z,96373
2015-09-07T02:23:55.218Z,96378
2015-09-07T02:24:13.609Z,96378
2015-09-07T02:24:31.968Z,96370
2015-09-07T02:24:50.578Z,96375
2015-09-07T02:25:08.641Z,96381
2015-09-07T02:25:27.094Z,96375
2015-09-07T02:25:45.815Z,96375
2015-09-07T02:26:04.299Z,96387
2015-09-07T02:26:22.705Z,96373
2015-09-07T02:26:41.330Z,96379
2015-09-07T02:26:59.942Z,96368
2015-09-07T02:27:18.410Z,96371
2015-09-07T02:27:36.785Z,96371
2015-09-07T02:27:55.428Z,96371
2015-09-07T02:28:13.756Z,96379
2015-09-07T02:28:32.350Z,96368
2015-09-07T02:28:51.102Z,96368
2015-09-07T02:29:09.680Z,96362
2015-09-07T02:29:28.071Z,96371
2015-09-07T02:29:46.602Z,96373
2015-09-07T02:30:05.026Z,96378
2015-09-07T02:30:23.432Z,96381
2015-09-07T02:30:42.041Z,96376
2015-09-07T02:31:00.450Z,96373
2015-09-07T02:31:18.965Z,96365
2015-09-07T02:31:37.372Z,96368
2015-09-07T02:31:55.780Z,96365
2015-09-07T02:32:14.249Z,96374
2015-09-07T02:32:32.483Z,96377
2015-09-07T02:32:50.920Z,96363
2015-09-07T02:33:09.797Z,96366
2015-09-07T02:33:28.563Z,96374
2015-09-07T02:33:46.938Z,96374
2015-09-07T02:34:05.378Z,96385
2015-09-07T02:34:23.799Z,96366
2015-09-07T02:34:42.331Z,96369
2015-09-07T02:35:00.786Z,96369
2015-09-07T02:35:19.301Z,96377
2015-09-07T02:35:37.989Z,96366
2015-09-07T02:35:56.475Z,96377
2015-09-07T02:36:15.178Z,96368
2015-09-07T02:36:33.585Z,96379
2015-09-07T02:36:51.991Z,96357
2015-09-07T02:37:10.727Z,96374
2015-09-07T02:37:29.071Z,96368
2015-09-07T02:37:47.665Z,96363
2015-09-07T02:38:06.136Z,96371
2015-09-07T02:38:24.479Z,96354
2015-09-07T02:38:42.870Z,96366
2015-09-07T02:39:01.278Z,96363
2015-09-07T02:39:19.638Z,96360
2015-09-07T02:39:38.075Z,96368
2015-09-07T02:39:56.638Z,96371
2015-09-07T02:40:14.998Z,96360
2015-09-07T02:40:33.467Z,96365
2015-09-07T02:40:51.904Z,96371
2015-09-07T02:41:10.422Z,96366
2015-09-07T02:41:28.781Z,96368
2015-09-07T02:41:47.281Z,96363
2015-09-07T02:42:05.769Z,96373
2015-09-07T02:42:24.425Z,96368
2015-09-07T02:42:42.894Z,96362
2015-09-07T02:43:01.112Z,96373
2015-09-07T02:43:19.723Z,96368
2015-09-07T02:43:38.082Z,96365
2015-09-07T02:43:56.598Z,96370
2015-09-07T02:44:14.959Z,96375
2015-09-07T02:44:33.350Z,96375
2015-09-07T02:44:52.022Z,96370
2015-09-07T02:45:10.602Z,96376
2015-09-07T02:45:29.008Z,96370
2015-09-07T02:45:47.383Z,96371
2015-09-07T02:46:05.774Z,96373
2015-09-07T02:46:24.151Z,96365
2015-09-07T02:46:42.604Z,96370
2015-09-07T02:47:01.026Z,96376
2015-09-07T02:47:19.715Z,96376
2015-09-07T02:47:38.231Z,96362
2015-09-07T02:47:56.606Z,96373
2015-09-07T02:48:14.967Z,96373
2015-09-07T02:48:33.326Z,96378
2015-09-07T02:48:51.811Z,96371
2015-09-07T02:49:10.201Z,96379
2015-09-07T02:49:28.641Z,96360
2015-09-07T02:49:47.016Z,96379
2015-09-07T02:50:05.407Z,96374
2015-09-07T02:50:23.627Z,96374
2015-09-07T02:50:42.159Z,96368
2015-09-07T02:51:00.971Z,96373
2015-09-07T02:51:19.552Z,96371
2015-09-07T02:51:37.974Z,96382
2015-09-07T02:51:56.599Z,96371
2015-09-07T02:52:15.164Z,96373
2015-09-07T02:52:33.554Z,96376
2015-09-07T02:52:51.914Z,96373
2015-09-07T02:53:10.320Z,96375
2015-09-07T02:53:28.743Z,96370
2015-09-07T02:53:47.102Z,96375
2015-09-07T02:54:05.477Z,96372
2015-09-07T02:54:24.183Z,96375
2015-09-07T02:54:42.746Z,96381
2015-09-07T02:55:01.136Z,96370
2015-09-07T02:55:19.513Z,96365
2015-09-07T02:55:37.888Z,96368
2015-09-07T02:55:56.263Z,96376
2015-09-07T02:56:14.732Z,96368
2015-09-07T02:56:33.280Z,96368
2015-09-07T02:56:51.827Z,96381
2015-09-07T02:57:10.202Z,96376
2015-09-07T02:57:28.579Z,96371
2015-09-07T02:57:47.110Z,96382
2015-09-07T02:58:05.485Z,96368
2015-09-07T02:58:23.844Z,96365
2015-09-07T02:58:42.237Z,96374
2015-09-07T02:59:00.596Z,96370
2015-09-07T02:59:19.018Z,96378
2015-09-07T02:59:37.458Z,96375
2015-09-07T02:59:56.005Z,96375
2015-09-07T03:00:14.411Z,96359
2015-09-07T03:00:32.772Z,96369
2015-09-07T03:00:51.257Z,96372
2015-09-07T03:01:09.882Z,96380
2015-09-07T03:01:28.241Z,96366
2015-09-07T03:01:46.602Z,96375
2015-09-07T03:02:04.993Z,96372
2015-09-07T03:02:23.446Z,96372
2015-09-07T03:02:41.870Z,96375
2015-09-07T03:03:00.683Z,96369
2015-09-07T03:03:19.058Z,96375
2015-09-07T03:03:37.700Z,96367
2015-09-07T03:03:56.169Z,96367
2015-09-07T03:04:14.606Z,96370
2015-09-07T03:04:32.967Z,96361
2015-09-07T03:04:51.357Z,96372
2015-09-07T03:05:09.764Z,96378
2015-09-07T03:05:28.170Z,96375
2015-09-07T03:05:47.110Z,96369
2015-09-07T03:06:05.579Z,96366
2015-09-07T03:06:23.985Z,96372
2015-09-07T03:06:41.972Z,96375
2015-09-07T03:07:00.394Z,96372
2015-09-07T03:07:18.753Z,96366
2015-09-07T03:07:37.207Z,96369
2015-09-07T03:07:55.613Z,96361
2015-09-07T03:08:14.067Z,96366
2015-09-07T03:08:32.629Z,96363
2015-09-07T03:08:51.023Z,96371
2015-09-07T03:09:09.382Z,96357
2015-09-07T03:09:27.804Z,96368
2015-09-07T03:09:46.197Z,96365
2015-09-07T03:10:04.681Z,96363
2015-09-07T03:10:23.025Z,96365
2015-09-07T03:10:41.620Z,96368
2015-09-07T03:11:00.136Z,96376
2015-09-07T03:11:18.527Z,96371
2015-09-07T03:11:36.995Z,96362
2015-09-07T03:11:55.372Z,96367
2015-09-07T03:12:13.794Z,96367
2015-09-07T03:12:32.372Z,96365
2015-09-07T03:12:51.031Z,96365
2015-09-07T03:13:09.406Z,96359
2015-09-07T03:13:27.765Z,96367
2015-09-07T03:13:46.580Z,96364
2015-09-07T03:14:04.955Z,96364
2015-09-07T03:14:23.361Z,96373
2015-09-07T03:14:41.845Z,96362
2015-09-07T03:15:00.535Z,96370
2015-09-07T03:15:18.925Z,96372
2015-09-07T03:15:37.300Z,96367
2015-09-07T03:15:56.020Z,96361
2015-09-07T03:16:14.504Z,96354
2015-09-07T03:16:32.895Z,96367
2015-09-07T03:16:51.272Z,96362
2015-09-07T03:17:09.960Z,96361
2015-09-07T03:17:28.350Z,96361
2015-09-07T03:17:46.774Z,96366
2015-09-07T03:18:05.602Z,96360
2015-09-07T03:18:24.055Z,96357
2015-09-07T03:18:42.493Z,96363
2015-09-07T03:19:00.901Z,96358
2015-09-07T03:19:19.495Z,96366
2015-09-07T03:19:38.073Z,96366
2015-09-07T03:19:56.434Z,96360
2015-09-07T03:20:14.809Z,96363
2015-09-07T03:20:33.450Z,96354
2015-09-07T03:20:51.875Z,96360
2015-09-07T03:21:10.344Z,96352
2015-09-07T03:21:28.828Z,96352
2015-09-07T03:21:47.219Z,96363
2015-09-07T03:22:05.766Z,96363
2015-09-07T03:22:24.376Z,96362
2015-09-07T03:22:42.813Z,96354
2015-09-07T03:23:01.190Z,96357
2015-09-07T03:23:19.565Z,96357
2015-09-07T03:23:37.925Z,96354
2015-09-07T03:23:56.427Z,96368
2015-09-07T03:24:15.130Z,96365
2015-09-07T03:24:33.489Z,96362
2015-09-07T03:24:51.942Z,96368
2015-09-07T03:25:10.319Z,96357
2015-09-07T03:25:28.726Z,96357
2015-09-07T03:25:47.272Z,96362
2015-09-07T03:26:05.649Z,96357
2015-09-07T03:26:24.009Z,96362
2015-09-07T03:26:42.415Z,96365
2015-09-07T03:27:00.823Z,96351
2015-09-07T03:27:19.292Z,96362
2015-09-07T03:27:37.714Z,96359
2015-09-07T03:27:56.073Z,96359
2015-09-07T03:28:14.450Z,96350
2015-09-07T03:28:32.841Z,96353
2015-09-07T03:28:51.263Z,96350
2015-09-07T03:29:09.734Z,96358
2015-09-07T03:29:28.155Z,96347
2015-09-07T03:29:46.702Z,96358
2015-09-07T03:30:05.204Z,96355
2015-09-07T03:30:23.611Z,96358
2015-09-07T03:30:42.032Z,96356
2015-09-07T03:31:00.454Z,96353
2015-09-07T03:31:18.784Z,96350
2015-09-07T03:31:37.441Z,96358
2015-09-07T03:31:55.988Z,96355
2015-09-07T03:32:14.490Z,96352
2015-09-07T03:32:33.177Z,96363
2015-09-07T03:32:51.615Z,96363
2015-09-07T03:33:09.992Z,96360
2015-09-07T03:33:28.367Z,96355
2015-09-07T03:33:46.788Z,96352
2015-09-07T03:34:05.148Z,96352
2015-09-07T03:34:23.649Z,96354
2015-09-07T03:34:42.024Z,96351
2015-09-07T03:35:00.758Z,96354
2015-09-07T03:35:19.245Z,96357
2015-09-07T03:35:37.823Z,96348
2015-09-07T03:35:56.245Z,96348
2015-09-07T03:36:14.623Z,96351
2015-09-07T03:36:33.373Z,96348
2015-09-07T03:36:51.888Z,96345
2015-09-07T03:37:10.405Z,96354
2015-09-07T03:37:28.842Z,96351
2015-09-07T03:37:47.249Z,96346
2015-09-07T03:38:05.608Z,96345
2015-09-07T03:38:24.002Z,96343
2015-09-07T03:38:42.580Z,96356
2015-09-07T03:39:01.095Z,96343
2015-09-07T03:39:19.629Z,96357
2015-09-07T03:39:38.191Z,96340
2015-09-07T03:39:56.597Z,96362
2015-09-07T03:40:15.442Z,96348
2015-09-07T03:40:34.036Z,96353
2015-09-07T03:40:52.473Z,96348
2015-09-07T03:41:10.864Z,96354
2015-09-07T03:41:29.429Z,96348
2015-09-07T03:41:47.898Z,96348
2015-09-07T03:42:06.476Z,96353
2015-09-07T03:42:24.946Z,96348
2015-09-07T03:42:43.524Z,96348
2015-09-07T03:43:02.071Z,96358
2015-09-07T03:43:20.542Z,96353
2015-09-07T03:43:39.026Z,96345
2015-09-07T03:43:57.714Z,96350
2015-09-07T03:44:16.354Z,96353
2015-09-07T03:44:35.138Z,96342
2015-09-07T03:44:53.513Z,96353
2015-09-07T03:45:12.091Z,96341
2015-09-07T03:45:30.875Z,96347
2015-09-07T03:45:49.281Z,96350
2015-09-07T03:46:08.047Z,96350
2015-09-07T03:46:26.471Z,96349
2015-09-07T03:46:44.893Z,96344
2015-09-07T03:47:03.252Z,96344
2015-09-07T03:47:22.221Z,96346
2015-09-07T03:47:40.894Z,96344
2015-09-07T03:47:59.378Z,96341
2015-09-07T03:48:18.065Z,96333
2015-09-07T03:48:36.614Z,96346
2015-09-07T03:48:55.130Z,96343
2015-09-07T03:49:13.786Z,96352
2015-09-07T03:49:32.444Z,96344
2015-09-07T03:49:50.882Z,96336
2015-09-07T03:50:09.398Z,96344
2015-09-07T03:50:27.804Z,96343
2015-09-07T03:50:46.182Z,96335
2015-09-07T03:51:04.869Z,96341
2015-09-07T03:51:23.432Z,96341
2015-09-07T03:51:41.933Z,96337
2015-09-07T03:52:00.480Z,96343
2015-09-07T03:52:18.917Z,96343
2015-09-07T03:52:37.404Z,96334
2015-09-07T03:52:56.029Z,96346
2015-09-07T03:53:14.607Z,96335
2015-09-07T03:53:33.185Z,96343
2015-09-07T03:53:51.687Z,96346
2015-09-07T03:54:10.031Z,96348
2015-09-07T03:54:28.874Z,96337
2015-09-07T03:54:47.439Z,96337
2015-09-07T03:55:06.079Z,96334
2015-09-07T03:55:24.658Z,96337
2015-09-07T03:55:43.066Z,96345
2015-09-07T03:56:01.503Z,96336
2015-09-07T03:56:20.066Z,96331
2015-09-07T03:56:38.912Z,96339
2015-09-07T03:56:57.396Z,96342
2015-09-07T03:57:16.130Z,96337
2015-09-07T03:57:34.787Z,96339